createdAt,value
2022-12-03T00:16:52.683Z,76.59
2022-12-03T00:19:31.329Z,75.97
2022-12-03T00:22:02.046Z,74.62
2022-12-03T00:24:34.637Z,74.27
2022-12-03T00:29:57.115Z,76.63
2022-12-03T00:32:24.015Z,75.94
2022-12-03T00:34:50.702Z,76.28
2022-12-03T00:37:17.402Z,75.99
2022-12-03T00:39:43.950Z,74.78
2022-12-03T00:42:10.658Z,75.33
2022-12-03T00:48:29.849Z,78.21
2022-12-03T00:50:56.398Z,78.21
2022-12-03T00:53:22.920Z,76.98
2022-12-03T00:55:50.698Z,75.98
2022-12-03T00:58:18.049Z,76.22
2022-12-03T01:00:44.657Z,77.62
2022-12-03T01:03:11.318Z,77.45
2022-12-03T01:05:37.940Z,77.39
2022-12-03T01:08:04.753Z,75.41
2022-12-03T01:10:31.427Z,74.19
2022-12-03T01:12:57.946Z,74.12
2022-12-03T01:15:24.493Z,76.03
2022-12-03T01:17:51.017Z,75.58
2022-12-03T01:20:17.713Z,75.53
2022-12-03T01:22:44.869Z,74.73
2022-12-03T01:25:11.571Z,73.65
2022-12-03T01:27:38.144Z,73.22
2022-12-03T01:30:05.952Z,73.71
2022-12-03T01:32:32.538Z,74.70
2022-12-03T01:34:59.128Z,73.28
2022-12-03T01:37:26.747Z,75.48
2022-12-03T01:39:53.699Z,74.17
2022-12-03T01:42:30.213Z,74.11
2022-12-03T01:44:59.077Z,74.17
2022-12-03T01:47:30.867Z,73.61
2022-12-03T01:50:30.160Z,74.75
2022-12-03T01:53:00.089Z,73.99
2022-12-03T01:55:26.828Z,72.56
2022-12-03T01:57:57.287Z,73.41
2022-12-03T02:00:29.279Z,73.56
2022-12-03T02:03:07.401Z,74.98
2022-12-03T02:05:34.513Z,74.32
2022-12-03T02:08:01.308Z,73.66
2022-12-03T02:10:33.542Z,74.46
2022-12-03T02:13:05.085Z,75.32
2022-12-03T02:15:31.841Z,74.46
2022-12-03T02:17:59.758Z,74.46
2022-12-03T02:20:26.666Z,73.92
2022-12-03T02:22:53.128Z,75.93
2022-12-03T02:25:23.135Z,74.53
2022-12-03T02:27:50.957Z,74.43
2022-12-03T02:30:20.819Z,73.38
2022-12-03T02:32:48.993Z,74.06
2022-12-03T02:35:18.460Z,75.00
2022-12-03T02:37:47.667Z,75.57
2022-12-03T02:40:19.898Z,75.77
2022-12-03T02:42:47.713Z,74.74
2022-12-03T02:45:22.592Z,73.28
2022-12-03T02:47:52.718Z,72.46
2022-12-03T02:50:24.064Z,73.54
2022-12-03T02:52:53.355Z,73.31
2022-12-03T02:55:20.899Z,73.65
2022-12-03T02:57:50.156Z,72.89
2022-12-03T03:00:17.847Z,73.39
2022-12-03T03:19:38.270Z,73.90
2022-12-03T03:22:04.906Z,73.45
2022-12-03T03:24:32.536Z,74.71
2022-12-03T03:26:59.148Z,74.43
2022-12-03T03:29:25.765Z,72.64
2022-12-03T03:31:52.481Z,73.53
2022-12-03T03:34:19.088Z,76.34
2022-12-03T03:36:46.596Z,76.17
2022-12-03T03:39:13.943Z,73.46
2022-12-03T03:41:41.197Z,73.22
2022-12-03T03:44:08.929Z,71.97
2022-12-03T03:46:37.048Z,72.57
2022-12-03T03:49:05.690Z,73.20
2022-12-03T03:51:34.646Z,73.46
2022-12-03T03:54:03.956Z,73.57
2022-12-03T03:56:30.700Z,77.70
2022-12-03T03:58:57.262Z,75.36
2022-12-03T04:01:24.371Z,76.03
2022-12-03T04:03:50.993Z,74.68
2022-12-03T04:06:17.789Z,75.06
2022-12-03T04:08:44.478Z,77.00
2022-12-03T04:11:29.612Z,74.88
2022-12-03T04:13:56.139Z,76.40
2022-12-03T04:16:22.710Z,78.42
2022-12-03T04:18:49.365Z,80.75
2022-12-03T04:21:36.857Z,78.20
2022-12-03T04:24:04.366Z,79.21
2022-12-03T04:26:49.619Z,76.87
2022-12-03T04:29:16.239Z,76.83
2022-12-03T04:32:23.523Z,80.39
2022-12-03T04:35:08.869Z,78.05
2022-12-03T04:37:35.873Z,78.28
2022-12-03T04:40:02.407Z,78.12
2022-12-03T04:46:47.508Z,79.90
2022-12-03T04:49:14.035Z,79.21
2022-12-03T04:51:40.594Z,77.46
2022-12-03T04:54:11.613Z,75.62
2022-12-03T04:56:38.202Z,75.97
2022-12-03T04:59:04.917Z,78.87
2022-12-03T05:01:31.576Z,79.24
2022-12-03T05:03:58.385Z,80.13
2022-12-03T05:06:24.984Z,79.97
2022-12-03T05:08:51.530Z,82.54
2022-12-03T05:11:18.403Z,85.17
2022-12-03T05:13:44.923Z,83.57
2022-12-03T05:16:11.476Z,82.57
2022-12-03T05:18:38.152Z,82.14
2022-12-03T05:21:04.762Z,80.55
2022-12-03T05:23:31.359Z,84.18
2022-12-03T05:25:57.902Z,82.21
2022-12-03T05:28:24.506Z,78.46
2022-12-03T05:30:52.052Z,77.02
2022-12-03T05:33:18.696Z,77.15
2022-12-03T05:35:45.237Z,77.15
2022-12-03T05:38:11.840Z,79.16
2022-12-03T05:40:38.441Z,77.73
2022-12-03T05:43:05.169Z,78.46
2022-12-03T05:45:35.582Z,77.65
2022-12-03T05:48:03.646Z,75.66
2022-12-03T05:50:33.399Z,75.97
2022-12-03T05:53:00.388Z,74.88
2022-12-03T05:55:27.927Z,76.23
2022-12-03T05:57:54.711Z,76.02
2022-12-03T06:00:26.480Z,75.94
2022-12-03T06:02:54.284Z,74.99
2022-12-03T06:05:21.862Z,74.59
2022-12-03T06:07:50.072Z,75.73
2022-12-03T06:10:22.650Z,76.31
2022-12-03T06:12:49.654Z,75.42
2022-12-03T06:15:16.708Z,77.40
2022-12-03T06:17:43.291Z,76.52
2022-12-03T06:20:14.154Z,75.24
2022-12-03T06:22:40.823Z,74.94
2022-12-03T06:25:10.069Z,75.36
2022-12-03T06:27:36.836Z,75.14
2022-12-03T06:30:05.273Z,74.77
2022-12-03T06:32:31.878Z,74.62
2022-12-03T06:34:58.447Z,76.03
2022-12-03T06:37:25.040Z,74.84
2022-12-03T06:39:51.581Z,73.47
2022-12-03T06:42:18.162Z,76.30
2022-12-03T06:44:44.692Z,75.79
2022-12-03T06:47:11.276Z,73.56
2022-12-03T06:49:37.976Z,74.36
2022-12-03T06:52:04.639Z,74.01
2022-12-03T06:54:31.307Z,75.19
2022-12-03T06:56:57.871Z,73.71
2022-12-03T06:59:24.436Z,73.39
2022-12-03T07:01:51.040Z,74.17
2022-12-03T07:04:17.643Z,73.47
2022-12-03T07:06:44.241Z,73.63
2022-12-03T07:09:10.942Z,74.20
2022-12-03T07:11:40.776Z,74.31
2022-12-03T07:14:09.160Z,75.99
2022-12-03T07:16:36.172Z,79.14
2022-12-03T07:19:05.247Z,76.85
2022-12-03T07:21:32.263Z,75.81
2022-12-03T07:23:58.809Z,76.53
2022-12-03T07:26:25.368Z,76.95
2022-12-03T07:31:35.723Z,73.82
2022-12-03T07:34:02.351Z,74.59
2022-12-03T07:36:28.939Z,74.57
2022-12-03T07:38:55.517Z,75.52
2022-12-03T07:41:27.004Z,76.07
2022-12-03T07:43:53.579Z,74.70
2022-12-03T07:46:20.213Z,75.29
2022-12-03T07:54:31.570Z,73.76
2022-12-03T07:57:01.967Z,72.81
2022-12-03T08:00:00.239Z,74.75
2022-12-03T08:02:46.889Z,74.88
2022-12-03T08:05:14.132Z,72.99
2022-12-03T08:07:41.206Z,73.04
2022-12-03T08:10:08.008Z,73.18
2022-12-03T08:12:41.241Z,74.04
2022-12-03T08:15:18.867Z,76.00
2022-12-03T08:17:51.066Z,76.19
2022-12-03T08:23:21.630Z,73.10
2022-12-03T08:25:51.539Z,73.77
2022-12-03T08:28:19.622Z,74.59
2022-12-03T08:34:06.920Z,78.18
2022-12-03T08:36:33.804Z,78.23
2022-12-03T08:39:05.562Z,76.47
2022-12-03T08:42:14.188Z,78.52
2022-12-03T08:44:41.208Z,79.34
2022-12-03T08:49:50.488Z,76.85
2022-12-03T08:52:20.902Z,79.43
2022-12-03T08:54:54.423Z,78.68
2022-12-03T08:57:28.540Z,78.18
2022-12-03T09:00:16.889Z,76.87
2022-12-03T09:02:49.800Z,76.24
2022-12-03T09:05:21.103Z,76.00
2022-12-03T09:07:47.782Z,75.51
2022-12-03T09:10:14.842Z,74.60
2022-12-03T09:12:41.407Z,76.38
2022-12-03T09:15:08.430Z,77.30
2022-12-03T09:17:35.005Z,78.00
2022-12-03T09:20:01.769Z,75.04
2022-12-03T09:22:31.795Z,73.88
2022-12-03T09:24:58.351Z,75.20
2022-12-03T09:27:24.914Z,73.80
2022-12-03T09:29:51.524Z,72.66
2022-12-03T09:32:18.966Z,71.24
2022-12-03T09:34:46.459Z,75.00
2022-12-03T09:37:13.014Z,73.08
2022-12-03T09:39:39.764Z,75.09
2022-12-03T09:42:06.340Z,73.17
2022-12-03T09:44:34.450Z,71.30
2022-12-03T09:47:02.717Z,71.79
2022-12-03T09:49:31.987Z,71.51
2022-12-03T09:52:01.815Z,70.61
2022-12-03T09:54:30.168Z,69.83
2022-12-03T09:56:59.324Z,68.79
2022-12-03T09:59:31.436Z,68.81
2022-12-03T10:01:58.370Z,67.12
2022-12-03T10:04:28.433Z,68.02
2022-12-03T10:06:57.440Z,68.96
2022-12-03T10:09:27.245Z,70.75
2022-12-03T10:11:56.530Z,69.60
2022-12-03T10:14:23.287Z,70.30
2022-12-03T10:19:39.642Z,70.14
2022-12-03T10:22:06.223Z,70.15
2022-12-03T10:24:42.635Z,70.86
2022-12-03T10:30:34.618Z,69.05
2022-12-03T10:33:18.497Z,70.45
2022-12-03T10:35:45.541Z,69.33
2022-12-03T10:38:17.952Z,69.15
2022-12-03T10:40:45.224Z,69.46
2022-12-03T10:43:17.839Z,70.12
2022-12-03T10:45:49.144Z,72.25
2022-12-03T10:48:29.855Z,69.92
2022-12-03T10:51:04.804Z,69.75
2022-12-03T10:53:36.130Z,69.03
2022-12-03T10:56:06.432Z,69.92
2022-12-03T11:03:44.720Z,69.23
2022-12-03T11:06:16.412Z,69.87
2022-12-03T11:08:43.863Z,67.95
2022-12-03T11:11:18.852Z,66.79
2022-12-03T11:13:47.081Z,67.72
2022-12-03T11:16:44.491Z,67.05
2022-12-03T11:19:38.175Z,67.47
2022-12-03T11:22:09.653Z,67.60
2022-12-03T11:24:38.163Z,67.27
2022-12-03T11:27:29.204Z,66.55
2022-12-03T11:30:56.561Z,67.74
2022-12-03T11:33:28.848Z,67.63
2022-12-03T11:36:04.652Z,67.41
2022-12-03T11:38:52.416Z,66.87
2022-12-03T11:41:30.671Z,67.65
2022-12-03T11:44:00.061Z,68.71
2022-12-03T11:46:46.261Z,66.85
2022-12-03T11:49:46.473Z,68.31
2022-12-03T11:52:23.957Z,66.78
2022-12-03T11:55:19.215Z,65.88
2022-12-03T11:58:58.562Z,66.74
2022-12-03T12:01:45.233Z,68.92
2022-12-03T12:04:28.701Z,67.69
2022-12-03T12:06:55.461Z,65.99
2022-12-03T12:09:50.910Z,67.14
2022-12-03T12:12:21.027Z,66.82
2022-12-03T12:17:36.792Z,65.41
2022-12-03T12:20:24.591Z,63.80
2022-12-03T12:22:53.339Z,64.23
2022-12-03T12:25:59.951Z,65.54
2022-12-03T12:29:16.286Z,65.60
2022-12-03T12:31:59.523Z,64.67
2022-12-03T12:34:26.001Z,63.94
2022-12-03T12:39:35.901Z,65.36
2022-12-03T12:42:22.415Z,66.55
2022-12-03T12:45:13.926Z,67.91
2022-12-03T12:47:59.578Z,70.00
2022-12-03T12:50:26.211Z,69.63
2022-12-03T12:52:56.909Z,69.38
2022-12-03T12:56:38.615Z,68.27
2022-12-03T12:59:33.178Z,67.83
2022-12-03T13:02:00.666Z,69.96
2022-12-03T13:04:30.589Z,69.27
2022-12-03T13:06:57.143Z,68.70
2022-12-03T13:09:25.975Z,68.76
2022-12-03T13:11:55.777Z,68.17
2022-12-03T13:14:45.234Z,67.61
2022-12-03T13:17:29.873Z,67.10
2022-12-03T13:20:06.763Z,68.03
2022-12-03T13:22:34.455Z,65.76
2022-12-03T13:26:09.276Z,66.26
2022-12-03T13:29:24.761Z,69.28
2022-12-03T13:34:47.566Z,68.80
2022-12-03T13:37:19.420Z,67.53
2022-12-03T13:39:50.439Z,68.14
2022-12-03T13:42:35.793Z,68.49
2022-12-03T13:45:03.570Z,67.10
2022-12-03T13:47:30.090Z,67.09
2022-12-03T13:50:03.624Z,66.94
2022-12-03T13:52:34.656Z,65.71
2022-12-03T13:55:02.629Z,65.81
2022-12-03T13:57:29.158Z,66.97
2022-12-03T13:59:57.101Z,67.51
2022-12-03T14:02:23.846Z,68.29
2022-12-03T14:04:54.100Z,66.91
2022-12-03T14:07:23.355Z,67.80
2022-12-03T14:09:50.215Z,68.45
2022-12-03T14:12:25.719Z,67.67
2022-12-03T14:14:52.933Z,69.65
2022-12-03T14:17:19.651Z,69.83
2022-12-03T14:19:46.205Z,67.46
2022-12-03T14:22:12.807Z,69.37
2022-12-03T14:24:42.712Z,68.05
2022-12-03T14:27:11.431Z,67.93
2022-12-03T14:29:44.764Z,68.20
2022-12-03T14:32:11.403Z,68.24
2022-12-03T14:34:37.993Z,68.37
2022-12-03T14:37:05.159Z,67.10
2022-12-03T14:39:31.749Z,67.81
2022-12-03T14:42:13.383Z,69.63
2022-12-03T14:44:41.104Z,70.37
2022-12-03T14:47:07.993Z,71.03
2022-12-03T14:49:34.994Z,70.38
2022-12-03T14:52:02.148Z,71.04
2022-12-03T14:54:28.779Z,71.28
2022-12-03T14:56:55.442Z,71.21
2022-12-03T14:59:27.355Z,70.18
2022-12-03T15:01:54.753Z,70.79
2022-12-03T15:04:21.518Z,73.97
2022-12-03T15:06:48.069Z,72.07
2022-12-03T15:09:14.722Z,71.51
2022-12-03T15:11:45.920Z,72.90
2022-12-03T15:14:13.034Z,71.93
2022-12-03T15:16:40.074Z,71.94
2022-12-03T15:19:06.818Z,72.52
2022-12-03T15:21:34.943Z,74.22
2022-12-03T15:24:02.565Z,73.71
2022-12-03T15:26:29.993Z,70.73
2022-12-03T15:28:56.545Z,70.75
2022-12-03T15:31:23.237Z,72.30
2022-12-03T15:33:49.893Z,72.18
2022-12-03T15:36:16.832Z,71.88
2022-12-03T15:38:43.413Z,73.01
2022-12-03T15:41:24.782Z,72.97
2022-12-03T15:43:52.629Z,72.35
2022-12-03T15:46:20.019Z,71.60
2022-12-03T15:48:47.100Z,72.07
2022-12-03T15:51:13.819Z,69.82
2022-12-03T15:53:41.079Z,69.43
2022-12-03T15:56:07.897Z,68.63
2022-12-03T15:58:35.099Z,68.72
2022-12-03T16:01:01.781Z,69.24
2022-12-03T16:03:28.471Z,69.73
2022-12-03T16:05:55.150Z,72.86
2022-12-03T16:08:21.821Z,72.65
2022-12-03T16:10:49.532Z,71.99
2022-12-03T16:13:16.198Z,69.79
2022-12-03T16:15:43.024Z,71.15
2022-12-03T16:18:09.592Z,71.98
2022-12-03T16:20:36.160Z,72.19
2022-12-03T16:23:02.738Z,71.42
2022-12-03T16:25:29.312Z,71.45
2022-12-03T16:27:56.563Z,70.06
2022-12-03T16:30:24.718Z,70.92
2022-12-03T16:32:51.616Z,72.44
2022-12-03T16:35:18.323Z,73.88
2022-12-03T16:37:44.902Z,72.61
2022-12-03T16:40:12.163Z,73.41
2022-12-03T16:42:39.090Z,74.17
2022-12-03T16:45:09.055Z,72.92
2022-12-03T16:47:38.710Z,72.77
2022-12-03T16:50:07.883Z,73.20
2022-12-03T16:52:35.223Z,72.86
2022-12-03T16:55:02.089Z,73.48
2022-12-03T16:57:33.665Z,73.94
2022-12-03T17:00:01.060Z,74.62
2022-12-03T17:02:27.952Z,72.44
2022-12-03T17:04:54.825Z,73.55
2022-12-03T17:07:21.447Z,75.51
2022-12-03T17:09:48.078Z,74.37
2022-12-03T17:12:14.839Z,72.00
2022-12-03T17:14:41.367Z,71.39
2022-12-03T17:17:07.993Z,72.12
2022-12-03T17:19:34.596Z,70.70
2022-12-03T17:22:01.258Z,72.05
2022-12-03T17:24:28.036Z,72.98
2022-12-03T17:26:54.576Z,72.40
2022-12-03T17:29:21.313Z,72.47
2022-12-03T17:31:48.017Z,72.20
2022-12-03T17:34:14.992Z,72.56
2022-12-03T17:36:41.547Z,72.59
2022-12-03T17:39:08.091Z,73.84
2022-12-03T17:41:34.646Z,72.60
2022-12-03T17:44:03.624Z,72.97
2022-12-03T17:46:33.989Z,73.27
2022-12-03T17:49:00.678Z,73.77
2022-12-03T17:51:27.264Z,72.63
2022-12-03T17:53:53.823Z,73.04
2022-12-03T17:56:20.740Z,72.14
2022-12-03T17:58:47.368Z,73.54
2022-12-03T18:01:14.087Z,72.84
2022-12-03T18:03:40.704Z,73.41
2022-12-03T18:06:07.652Z,72.78
2022-12-03T18:08:34.232Z,74.72
2022-12-03T18:11:01.005Z,73.86
2022-12-03T18:13:28.164Z,73.43
2022-12-03T18:15:54.933Z,74.01
2022-12-03T18:18:21.527Z,77.66
2022-12-03T18:20:48.178Z,76.22
2022-12-03T18:23:14.795Z,75.41
2022-12-03T18:25:42.090Z,76.33
2022-12-03T18:28:08.644Z,76.65
2022-12-03T18:30:35.218Z,75.91
2022-12-03T18:33:01.805Z,75.76
2022-12-03T18:35:37.306Z,74.96
2022-12-03T18:38:03.970Z,76.74
2022-12-03T18:40:30.885Z,75.85
2022-12-03T18:42:57.443Z,76.36
2022-12-03T18:45:24.077Z,75.07
2022-12-03T18:47:50.733Z,74.91
2022-12-03T18:50:17.580Z,74.42
2022-12-03T18:52:44.174Z,75.05
2022-12-03T18:55:18.555Z,75.90
2022-12-03T18:57:45.616Z,75.50
2022-12-03T19:00:13.853Z,75.93
2022-12-03T19:05:27.312Z,74.82
2022-12-03T19:07:55.596Z,76.48
2022-12-03T19:10:22.640Z,75.80
2022-12-03T19:12:49.377Z,75.85
2022-12-03T19:15:16.572Z,75.42
2022-12-03T19:17:47.311Z,75.57
2022-12-03T19:20:13.931Z,75.72
2022-12-03T19:22:40.447Z,76.61
2022-12-03T19:25:07.181Z,76.28
2022-12-03T19:27:33.801Z,75.29
2022-12-03T19:30:00.355Z,75.15
2022-12-03T19:32:26.987Z,76.21
2022-12-03T19:34:53.572Z,76.66
2022-12-03T19:37:20.111Z,74.97
2022-12-03T19:39:46.922Z,76.57
2022-12-03T19:42:13.480Z,76.77
2022-12-03T19:44:39.983Z,76.92
2022-12-03T19:47:06.681Z,77.71
2022-12-03T19:49:33.301Z,76.81
2022-12-03T19:51:59.918Z,76.13
2022-12-03T19:54:26.460Z,76.22
2022-12-03T19:56:53.039Z,78.46
2022-12-03T19:59:19.562Z,78.51
2022-12-03T20:01:46.306Z,77.10
2022-12-03T20:04:13.670Z,75.78
2022-12-03T20:06:40.454Z,77.61
2022-12-03T20:09:13.080Z,76.53
2022-12-03T20:11:41.148Z,76.06
2022-12-03T20:14:10.742Z,76.88
2022-12-03T20:16:37.564Z,76.84
2022-12-03T20:19:07.086Z,76.14
2022-12-03T20:21:36.576Z,74.10
2022-12-03T20:24:04.642Z,74.25
2022-12-03T20:26:31.451Z,74.54
2022-12-03T20:28:58.148Z,74.35
2022-12-03T20:31:30.083Z,74.31
2022-12-03T20:33:59.471Z,74.16
2022-12-03T20:36:27.051Z,76.69
2022-12-03T20:38:55.064Z,75.20
2022-12-03T20:41:21.851Z,73.87
2022-12-03T20:43:48.558Z,74.00
2022-12-03T20:46:24.014Z,73.99
2022-12-03T20:48:50.882Z,73.61
2022-12-03T20:51:20.863Z,76.21
2022-12-03T20:53:47.483Z,74.51
2022-12-03T20:56:26.170Z,73.58
2022-12-03T20:58:53.548Z,73.02
2022-12-03T21:01:29.325Z,71.87
2022-12-03T21:03:57.000Z,72.57
2022-12-03T21:06:42.013Z,73.48
2022-12-03T21:09:09.765Z,74.19
2022-12-03T21:11:39.080Z,75.25
2022-12-03T21:14:05.870Z,73.83
2022-12-03T21:19:22.662Z,74.30
2022-12-03T21:21:50.043Z,72.78
2022-12-03T21:24:16.913Z,73.16
2022-12-03T21:26:43.459Z,73.98
2022-12-03T21:29:10.291Z,73.72
2022-12-03T21:31:38.417Z,74.05
2022-12-03T21:34:05.254Z,72.83
2022-12-03T21:36:32.318Z,73.50
2022-12-03T21:39:13.930Z,75.12
2022-12-03T21:41:40.615Z,75.76
2022-12-03T21:44:27.148Z,76.83
2022-12-03T21:47:11.762Z,77.62
2022-12-03T21:49:40.167Z,77.21
2022-12-03T21:52:06.695Z,74.65
2022-12-03T21:54:33.223Z,75.86
2022-12-03T21:56:59.769Z,75.70
2022-12-03T21:59:41.401Z,75.41
2022-12-03T22:02:09.593Z,76.39
2022-12-03T22:04:36.371Z,77.09
2022-12-03T22:07:06.039Z,77.20
2022-12-03T22:09:54.880Z,74.87
2022-12-03T22:15:42.132Z,75.70
2022-12-03T22:18:08.718Z,76.02
2022-12-03T22:20:35.281Z,75.72
2022-12-03T22:25:37.061Z,76.96
2022-12-03T22:28:03.793Z,77.24
2022-12-03T22:30:30.382Z,76.98
2022-12-03T22:32:56.951Z,79.14
2022-12-03T22:35:23.474Z,75.95
2022-12-03T22:37:50.024Z,76.11
2022-12-03T22:40:35.077Z,74.54
2022-12-03T22:43:20.701Z,76.25
2022-12-03T22:45:47.365Z,76.73
2022-12-03T22:48:15.053Z,76.65
2022-12-03T22:50:45.656Z,75.67
2022-12-03T22:53:13.286Z,74.13
2022-12-03T22:55:40.595Z,73.47
2022-12-03T23:00:49.849Z,74.44
2022-12-03T23:03:16.396Z,74.54
2022-12-03T23:05:43.094Z,75.06
2022-12-03T23:08:12.960Z,73.56
2022-12-03T23:10:42.371Z,73.09
2022-12-03T23:13:33.915Z,73.96
2022-12-03T23:19:59.481Z,73.39
2022-12-03T23:22:26.053Z,75.06
2022-12-03T23:24:52.581Z,75.70
2022-12-03T23:27:19.117Z,75.47
2022-12-03T23:30:00.883Z,75.59
2022-12-03T23:32:27.432Z,76.52
2022-12-03T23:34:54.084Z,75.72
2022-12-03T23:37:20.625Z,75.25
2022-12-03T23:39:50.030Z,77.00
2022-12-03T23:42:16.559Z,77.21
2022-12-03T23:44:52.082Z,78.81
2022-12-03T23:47:18.665Z,79.14
2022-12-03T23:49:45.284Z,79.71
2022-12-03T23:52:11.889Z,77.78
2022-12-03T23:55:03.527Z,77.99
2022-12-03T23:57:57.580Z,78.02
